Time;durP1;ratioP1;P1;durP2;ratioP2;P2;SDS_P1;SDS_P2;PMS_P1;PMS_P2;Temp;Humidity;BMP_temperature;BMP_pressure;BME280_temperature;BME280_humidity;BME280_pressure;Samples;Min_cycle;Max_cycle;Signal;HPM_P1;HPM_P2
2023/09/25 00:00:32;;;;;;;7.30;6.10;;;;;;;9.59;88.83;101855.03;105799;1251;69005;-64
2023/09/25 00:03:21;;;;;;;9.80;6.00;;;;;;;9.56;89.15;101851.58;105587;1251;75772;-64
2023/09/25 00:05:50;;;;;;;6.60;5.40;;;;;;;9.54;89.09;101854.04;105685;1252;83543;-64
2023/09/25 00:08:18;;;;;;;7.50;5.70;;;;;;;9.54;89.43;101855.61;105606;1251;73524;-64
2023/09/25 00:10:46;;;;;;;8.40;6.30;;;;;;;9.54;89.53;101857.00;105545;1251;69286;-64
2023/09/25 00:13:15;;;;;;;8.60;6.50;;;;;;;9.53;89.42;101861.02;105559;1251;69083;-64
2023/09/25 00:15:44;;;;;;;7.10;5.60;;;;;;;9.50;89.41;101861.05;105553;1251;74864;-64
2023/09/25 00:18:14;;;;;;;6.90;5.50;;;;;;;9.48;89.50;101862.30;105632;1254;83372;-64
2023/09/25 00:20:42;;;;;;;7.80;6.00;;;;;;;9.47;89.75;101857.42;105635;1251;73526;-64
2023/09/25 00:23:11;;;;;;;9.00;6.40;;;;;;;9.46;89.84;101855.86;105817;1257;69017;-64
2023/09/25 00:25:39;;;;;;;7.50;6.00;;;;;;;9.45;89.63;101853.44;105827;1255;69200;-64
2023/09/25 00:28:08;;;;;;;10.70;6.30;;;;;;;9.42;89.62;101852.59;105631;1256;74760;-64
2023/09/25 00:30:36;;;;;;;6.70;6.00;;;;;;;9.39;89.85;101849.63;105635;1251;83798;-64
2023/09/25 00:33:05;;;;;;;7.00;5.50;;;;;;;9.39;89.91;101847.89;105594;1252;73682;-64
2023/09/25 00:35:33;;;;;;;8.50;5.60;;;;;;;9.38;89.94;101849.48;105613;1255;69231;-64
2023/09/25 00:38:03;;;;;;;7.50;5.60;;;;;;;9.35;89.95;101845.66;105511;1251;69176;-64
2023/09/25 00:40:32;;;;;;;7.80;6.00;;;;;;;9.33;89.83;101846.38;105596;1255;73932;-64
2023/09/25 00:43:00;;;;;;;7.90;5.10;;;;;;;9.30;89.85;101846.41;105569;1251;83486;-64
2023/09/25 00:45:29;;;;;;;8.80;6.40;;;;;;;9.28;90.01;101850.94;105549;1254;73327;-64
2023/09/25 00:47:57;;;;;;;7.60;5.50;;;;;;;9.30;90.13;101851.81;105532;1256;69212;-64
2023/09/25 00:50:29;;;;;;;7.80;5.50;;;;;;;9.27;89.96;101848.52;105570;1256;69220;-64
2023/09/25 00:53:06;;;;;;;6.30;5.30;;;;;;;9.23;89.93;101845.95;105710;1251;74690;-65
2023/09/25 00:55:35;;;;;;;8.40;6.10;;;;;;;9.21;90.10;101841.09;105599;1251;83012;-64
2023/09/25 00:58:06;;;;;;;9.70;6.10;;;;;;;9.20;90.20;101838.30;105646;1256;74020;-64
2023/09/25 01:00:35;;;;;;;7.90;6.20;;;;;;;9.20;90.27;101836.20;105727;1251;69071;-64
2023/09/25 01:03:05;;;;;;;6.80;5.60;;;;;;;9.19;90.17;101836.91;105513;1251;69195;-64
2023/09/25 01:05:37;;;;;;;8.00;5.40;;;;;;;9.18;90.26;101837.79;105783;1254;73850;-64
2023/09/25 01:08:07;;;;;;;6.20;5.10;;;;;;;9.16;90.30;101837.28;105613;1254;82424;-64
2023/09/25 01:10:37;;;;;;;10.30;5.80;;;;;;;9.11;90.07;101835.05;105633;1251;73592;-64
2023/09/25 01:13:06;;;;;;;7.10;5.40;;;;;;;9.08;90.20;101834.90;105473;1250;69234;-64
2023/09/25 01:15:34;;;;;;;6.90;5.60;;;;;;;9.08;90.35;101832.63;105598;1251;69056;-64
2023/09/25 01:18:03;;;;;;;8.10;6.10;;;;;;;9.07;90.50;101832.47;105663;1251;74675;-64
2023/09/25 01:20:31;;;;;;;7.70;6.00;;;;;;;9.05;90.40;101831.79;105527;1256;82683;-64
2023/09/25 01:23:00;;;;;;;9.70;6.40;;;;;;;9.03;90.60;101828.83;105847;1251;73702;-64
2023/09/25 01:25:28;;;;;;;7.80;6.10;;;;;;;9.03;90.75;101827.80;105595;1257;69222;-64
2023/09/25 01:27:56;;;;;;;8.20;6.40;;;;;;;9.03;90.84;101826.39;105522;1251;69072;-64
2023/09/25 01:30:28;;;;;;;7.60;5.70;;;;;;;9.04;90.93;101828.82;105482;1257;73963;-64
2023/09/25 01:32:57;;;;;;;6.30;5.70;;;;;;;9.04;91.00;101836.50;105620;1251;83108;-64
2023/09/25 01:35:26;;;;;;;9.60;6.30;;;;;;;9.08;91.54;101839.61;105507;1251;73777;-65
2023/09/25 01:37:57;;;;;;;11.80;7.50;;;;;;;9.12;91.67;101835.75;105632;1251;69110;-64
2023/09/25 01:40:26;;;;;;;8.80;6.10;;;;;;;9.18;92.25;101834.66;105715;1251;69180;-65
2023/09/25 01:42:55;;;;;;;9.80;6.60;;;;;;;9.18;91.64;101832.90;105651;1255;74836;-65
2023/09/25 01:45:23;;;;;;;6.60;5.70;;;;;;;9.16;91.57;101828.90;105645;1255;83381;-64
2023/09/25 01:47:53;;;;;;;8.80;6.50;;;;;;;9.15;91.57;101828.57;105579;1251;73665;-64
2023/09/25 01:50:24;;;;;;;7.40;6.60;;;;;;;9.20;92.09;101827.66;105578;1253;69064;-65
2023/09/25 01:52:57;;;;;;;9.50;6.40;;;;;;;9.22;91.80;101825.55;105472;1251;69103;-65
2023/09/25 01:55:31;;;;;;;10.10;5.90;;;;;;;9.18;91.31;101828.89;105448;1251;74909;-64
2023/09/25 01:58:00;;;;;;;13.50;6.40;;;;;;;9.15;91.24;101829.79;105582;1251;82761;-65
2023/09/25 02:00:28;;;;;;;8.50;6.20;;;;;;;9.11;91.05;101832.09;105460;1251;72697;-64
2023/09/25 02:02:57;;;;;;;6.60;5.60;;;;;;;9.06;91.08;101827.25;105555;1256;69202;-64
2023/09/25 02:05:26;;;;;;;8.30;5.30;;;;;;;9.03;91.19;101827.44;105689;1255;69203;-64
2023/09/25 02:07:55;;;;;;;7.10;6.10;;;;;;;9.01;91.32;101826.59;105704;1256;74845;-64
2023/09/25 02:10:24;;;;;;;7.20;5.80;;;;;;;9.03;91.71;101824.30;105603;1251;83555;-64
2023/09/25 02:12:52;;;;;;;6.70;6.00;;;;;;;9.09;92.47;101827.23;105498;1256;73546;-64
2023/09/25 02:15:21;;;;;;;10.40;6.60;;;;;;;9.19;93.00;101829.93;105568;1255;69276;-64
2023/09/25 02:17:49;;;;;;;8.70;6.90;;;;;;;9.26;93.24;101829.87;105809;1255;69727;-64
2023/09/25 02:20:19;;;;;;;11.40;6.50;;;;;;;9.37;93.71;101822.98;105586;1255;75292;-64
2023/09/25 02:22:48;;;;;;;10.40;7.30;;;;;;;9.44;93.63;101823.42;105589;1257;83101;-64
2023/09/25 02:25:17;;;;;;;8.90;6.80;;;;;;;9.49;93.67;101819.89;105653;1257;72625;-64
2023/09/25 02:27:46;;;;;;;9.00;6.00;;;;;;;9.54;93.89;101822.98;105606;1251;69122;-64
2023/09/25 02:30:15;;;;;;;9.80;6.70;;;;;;;9.59;93.96;101822.55;105531;1257;69201;-64
2023/09/25 02:32:44;;;;;;;9.00;6.60;;;;;;;9.65;94.14;101822.52;105687;1251;74056;-64
2023/09/25 02:35:13;;;;;;;8.40;7.00;;;;;;;9.72;94.63;101817.02;105577;1251;83674;-64
2023/09/25 02:37:44;;;;;;;9.10;7.60;;;;;;;9.83;94.84;101814.48;105583;1251;72721;-64
2023/09/25 02:40:13;;;;;;;9.20;7.70;;;;;;;9.91;94.88;101806.17;105567;1257;69142;-64
2023/09/25 02:42:46;;;;;;;9.80;7.00;;;;;;;9.96;94.91;101807.50;105661;1257;69045;-64
2023/09/25 02:45:16;;;;;;;8.20;7.20;;;;;;;9.99;94.71;101799.95;105609;1251;73622;-64
2023/09/25 02:47:45;;;;;;;7.50;6.80;;;;;;;10.02;94.65;101795.56;105649;1255;83718;-64
2023/09/25 02:50:15;;;;;;;11.40;7.40;;;;;;;10.05;94.77;101797.97;105639;1252;72629;-64
2023/09/25 02:52:44;;;;;;;9.00;7.70;;;;;;;10.09;94.87;101796.17;105594;1251;69843;-64
2023/09/25 02:55:13;;;;;;;9.00;7.40;;;;;;;10.12;94.88;101795.27;105675;1257;69190;-64
2023/09/25 02:57:42;;;;;;;10.70;7.60;;;;;;;10.17;94.87;101791.70;105646;1251;73747;-64
2023/09/25 03:00:12;;;;;;;11.40;8.20;;;;;;;10.21;95.06;101791.30;105669;1256;83407;-64
2023/09/25 03:02:42;;;;;;;9.50;8.20;;;;;;;10.27;95.11;101788.09;105610;1256;72747;-64
2023/09/25 03:05:11;;;;;;;9.60;7.70;;;;;;;10.35;95.19;101789.56;105480;1251;69249;-64
2023/09/25 03:07:40;;;;;;;9.40;7.70;;;;;;;10.38;95.07;101786.73;105630;1255;69116;-64
2023/09/25 03:10:09;;;;;;;10.30;8.00;;;;;;;10.41;95.06;101785.30;105623;1253;75034;-64
2023/09/25 03:12:38;;;;;;;9.10;7.60;;;;;;;10.44;94.97;101783.15;105755;1256;83182;-64
2023/09/25 03:15:08;;;;;;;9.10;7.90;;;;;;;10.48;94.96;101780.66;105630;1251;74035;-64
2023/09/25 03:17:37;;;;;;;10.30;8.00;;;;;;;10.53;95.32;101773.58;105754;1257;69119;-64
2023/09/25 03:20:15;;;;;;;9.00;8.10;;;;;;;10.59;95.22;101774.20;105591;1257;69174;-62
2023/09/25 03:22:45;;;;;;;9.90;8.10;;;;;;;10.63;95.15;101772.55;105636;1257;74570;-62
2023/09/25 03:25:17;;;;;;;11.80;8.30;;;;;;;10.66;95.23;101768.67;105631;1257;82387;-63
2023/09/25 03:27:45;;;;;;;10.20;7.90;;;;;;;10.70;95.07;101772.46;105409;1251;74067;-62
2023/09/25 03:30:14;;;;;;;9.30;8.30;;;;;;;10.72;95.04;101769.45;105566;1252;69212;-62
2023/09/25 03:32:44;;;;;;;9.20;8.00;;;;;;;10.75;95.03;101770.98;105583;1251;69173;-62
2023/09/25 03:35:14;;;;;;;12.50;8.10;;;;;;;10.79;95.05;101770.04;105610;1257;73507;-63
2023/09/25 03:37:42;;;;;;;9.70;8.00;;;;;;;10.81;95.03;101768.79;105623;1251;82403;-63
2023/09/25 03:40:11;;;;;;;10.20;8.00;;;;;;;10.81;94.67;101768.44;105714;1257;72553;-63
2023/09/25 03:42:40;;;;;;;8.80;7.90;;;;;;;10.78;94.60;101768.13;105571;1254;68999;-63
2023/09/25 03:45:09;;;;;;;10.90;8.30;;;;;;;10.79;94.99;101767.58;105521;1256;69282;-63
2023/09/25 03:47:37;;;;;;;11.60;8.50;;;;;;;10.80;94.70;101764.76;105665;1256;73954;-63
2023/09/25 03:50:07;;;;;;;10.10;7.20;;;;;;;10.79;94.33;101769.33;105616;1256;83662;-63
2023/09/25 03:52:35;;;;;;;9.90;7.60;;;;;;;10.74;94.03;101765.74;105624;1257;73853;-63
2023/09/25 03:55:04;;;;;;;8.10;7.30;;;;;;;10.67;93.73;101769.52;105595;1252;69215;-63
2023/09/25 03:57:33;;;;;;;8.00;7.20;;;;;;;10.60;93.79;101770.34;105552;1256;69070;-63
2023/09/25 04:00:01;;;;;;;8.10;6.60;;;;;;;10.57;93.97;101770.89;105605;1256;74817;-63
2023/09/25 04:02:38;;;;;;;9.90;7.80;;;;;;;10.53;93.71;101768.51;105640;1254;83113;-63
2023/09/25 04:05:08;;;;;;;9.20;7.10;;;;;;;10.47;93.78;101764.05;105714;1252;73420;-63
2023/09/25 04:07:37;;;;;;;7.80;7.00;;;;;;;10.42;93.59;101766.74;105660;1253;69207;-63
2023/09/25 04:10:07;;;;;;;7.80;7.00;;;;;;;10.36;93.62;101766.32;105818;1251;69113;-65
2023/09/25 04:12:35;;;;;;;8.10;7.10;;;;;;;10.30;93.76;101766.05;105672;1251;75456;-65
2023/09/25 04:15:13;;;;;;;8.40;7.00;;;;;;;10.28;93.92;101763.27;105577;1251;83365;-64
2023/09/25 04:17:43;;;;;;;8.40;6.70;;;;;;;10.25;93.79;101761.55;105717;1253;73864;-65
2023/09/25 04:20:17;;;;;;;8.50;7.10;;;;;;;10.19;93.78;101761.10;105603;1255;69108;-64
2023/09/25 04:22:46;;;;;;;10.40;6.70;;;;;;;10.13;93.57;101769.05;105587;1251;69103;-64
2023/09/25 04:25:21;;;;;;;8.40;6.90;;;;;;;10.08;93.58;101765.10;105579;1257;74862;-64
2023/09/25 04:27:53;;;;;;;9.20;7.10;;;;;;;10.05;93.84;101766.88;105652;1255;82798;-64
2023/09/25 04:30:23;;;;;;;8.20;6.50;;;;;;;10.04;94.04;101765.50;105670;1255;73715;-65
2023/09/25 04:32:55;;;;;;;8.40;7.10;;;;;;;10.01;93.98;101764.65;105655;1251;69174;-65
2023/09/25 04:35:24;;;;;;;8.70;7.10;;;;;;;9.96;93.91;101765.08;105614;1252;69131;-65
2023/09/25 04:37:53;;;;;;;9.90;7.20;;;;;;;9.96;94.17;101760.89;105692;1256;74862;-65
2023/09/25 04:40:30;;;;;;;9.70;7.10;;;;;;;9.94;94.29;101760.03;105622;1257;82802;-64
2023/09/25 04:43:00;;;;;;;8.30;7.00;;;;;;;9.91;93.98;101758.33;105599;1254;72818;-65
2023/09/25 04:45:29;;;;;;;9.30;8.00;;;;;;;9.88;94.18;101758.54;105705;1257;69100;-64
2023/09/25 04:47:59;;;;;;;8.40;6.90;;;;;;;9.85;94.03;101764.34;105586;1257;69069;-65
2023/09/25 04:50:28;;;;;;;10.80;7.60;;;;;;;9.82;94.05;101764.20;105617;1251;74837;-65
2023/09/25 04:52:56;;;;;;;9.60;7.50;;;;;;;9.78;94.08;101761.62;105592;1257;83213;-64
2023/09/25 04:55:24;;;;;;;8.60;7.40;;;;;;;9.75;93.83;101762.20;105662;1256;73689;-64
2023/09/25 04:57:53;;;;;;;8.60;7.60;;;;;;;9.73;93.93;101758.89;105621;1256;69082;-64
2023/09/25 05:00:21;;;;;;;8.60;7.80;;;;;;;9.70;94.15;101757.53;105808;1251;69182;-64
2023/09/25 05:02:51;;;;;;;9.10;7.60;;;;;;;9.68;94.05;101758.61;105630;1255;74866;-65
2023/09/25 05:05:19;;;;;;;13.20;8.50;;;;;;;9.65;94.07;101760.73;105663;1251;83552;-65
2023/09/25 05:07:49;;;;;;;11.80;8.60;;;;;;;9.64;94.41;101763.70;105675;1257;73397;-63
2023/09/25 05:10:19;;;;;;;;;;;;;;;9.65;94.57;101761.43;106142;1258;69260;-62
2023/09/25 05:12:47;;;;;;;11.70;9.30;;;;;;;9.67;94.81;101765.42;105844;1257;69114;-64
2023/09/25 05:15:16;;;;;;;12.50;9.70;;;;;;;9.70;95.21;101769.23;105619;1252;73887;-65
2023/09/25 05:17:45;;;;;;;11.30;9.60;;;;;;;9.75;95.33;101767.42;105769;1257;82348;-63
2023/09/25 05:20:20;;;;;;;11.10;9.20;;;;;;;9.80;95.76;101766.85;105643;1255;73775;-62
2023/09/25 05:22:50;;;;;;;14.20;11.10;;;;;;;9.86;96.03;101761.19;105679;1255;69064;-63
2023/09/25 05:25:19;;;;;;;;;;;;;;;9.93;96.59;101760.73;105710;1251;69105;-63
2023/09/25 05:27:49;;;;;;;12.70;11.10;;;;;;;10.03;97.01;101762.02;105706;1255;73714;-63
2023/09/25 05:30:18;;;;;;;12.30;10.80;;;;;;;10.13;96.98;101763.82;105742;1251;82187;-65
2023/09/25 05:32:48;;;;;;;14.60;11.30;;;;;;;10.23;97.31;101760.36;105874;1257;73032;-63
2023/09/25 05:35:17;;;;;;;;;;;;;;;10.33;97.29;101756.59;105666;1256;69173;-63
2023/09/25 05:37:45;;;;;;;13.10;10.60;;;;;;;10.40;97.47;101758.21;105672;1251;69168;-63
2023/09/25 05:40:15;;;;;;;14.00;10.50;;;;;;;10.48;97.11;101760.73;105757;1257;74862;-63
2023/09/25 05:42:48;;;;;;;12.30;11.00;;;;;;;10.57;97.30;101755.87;105805;1255;83399;-63
2023/09/25 05:45:17;;;;;;;12.40;10.30;;;;;;;10.66;97.25;101759.05;105641;1257;73077;-64
2023/09/25 05:47:46;;;;;;;13.10;11.30;;;;;;;10.76;97.38;101756.45;105831;1252;69169;-62
2023/09/25 05:50:14;;;;;;;12.50;10.70;;;;;;;10.85;97.15;101758.23;105782;1256;69120;-63
2023/09/25 05:52:43;;;;;;;13.10;10.50;;;;;;;10.94;97.11;101759.45;105704;1256;74273;-64
2023/09/25 05:55:11;;;;;;;14.30;10.20;;;;;;;11.04;97.14;101763.15;105916;1256;83519;-64
2023/09/25 05:57:39;;;;;;;13.70;10.30;;;;;;;11.10;96.78;101760.42;105968;1251;73685;-64
2023/09/25 06:00:12;;;;;;;11.80;9.90;;;;;;;11.18;96.61;101764.49;105655;1257;69147;-63
2023/09/25 06:02:42;;;;;;;10.90;9.80;;;;;;;11.25;96.76;101765.92;105684;1256;69141;-63
2023/09/25 06:05:15;;;;;;;13.40;9.90;;;;;;;11.34;96.69;101767.16;105819;1256;74830;-64
2023/09/25 06:07:44;;;;;;;14.20;9.80;;;;;;;11.43;96.66;101773.66;105683;1255;83205;-61
2023/09/25 06:10:13;;;;;;;10.60;9.50;;;;;;;11.49;96.49;101769.85;105642;1255;72682;-61
2023/09/25 06:12:43;;;;;;;12.40;10.20;;;;;;;11.57;96.31;101771.46;105665;1257;69194;-61
2023/09/25 06:15:12;;;;;;;12.90;10.30;;;;;;;11.67;96.34;101774.26;105705;1257;69099;-61
2023/09/25 06:17:42;;;;;;;11.50;9.60;;;;;;;11.75;96.27;101776.35;105638;1255;74639;-61
2023/09/25 06:20:20;;;;;;;12.40;10.00;;;;;;;11.81;95.93;101779.92;106051;1251;82021;-60
2023/09/25 06:22:49;;;;;;;11.30;9.90;;;;;;;11.86;95.79;101778.79;105496;1257;221232;-61
2023/09/25 06:25:17;;;;;;;10.20;9.10;;;;;;;11.93;95.95;101778.98;105667;1257;69167;-61
2023/09/25 06:27:47;;;;;;;12.00;9.50;;;;;;;11.99;95.91;101774.84;105598;1266;69101;-63
2023/09/25 06:30:18;;;;;;;10.50;9.20;;;;;;;12.08;95.79;101778.70;105728;1255;75111;-65
2023/09/25 06:32:48;;;;;;;11.50;8.60;;;;;;;12.15;95.68;101776.45;105678;1256;83416;-66
2023/09/25 06:35:17;;;;;;;13.50;9.50;;;;;;;12.22;95.45;101774.02;105812;1256;72535;-71
2023/09/25 06:37:46;;;;;;;12.00;9.70;;;;;;;12.28;95.25;101772.81;105759;1257;69163;-71
2023/09/25 06:40:16;;;;;;;10.00;9.00;;;;;;;12.35;95.13;101768.80;105627;1251;69029;-71
2023/09/25 06:42:45;;;;;;;10.20;8.80;;;;;;;12.40;94.87;101769.92;105826;1255;74784;-71
2023/09/25 06:45:14;;;;;;;11.70;9.60;;;;;;;12.44;94.66;101767.38;105837;1255;82628;-66
2023/09/25 06:47:46;;;;;;;11.60;9.00;;;;;;;12.50;94.63;101762.88;105663;1257;73952;-66
2023/09/25 06:50:16;;;;;;;10.30;9.20;;;;;;;12.59;94.77;101765.80;105909;1251;69278;-66
2023/09/25 06:52:45;;;;;;;12.70;9.90;;;;;;;12.65;94.54;101764.78;105694;1255;69377;-68
2023/09/25 06:55:14;;;;;;;10.40;9.10;;;;;;;12.69;94.39;101762.92;105752;1255;74506;-68
2023/09/25 06:57:42;;;;;;;13.00;10.10;;;;;;;12.79;94.50;101766.91;105950;1257;83496;-68
2023/09/25 07:00:11;;;;;;;10.10;8.90;;;;;;;12.83;94.08;101761.02;105682;1257;72670;-67
2023/09/25 07:02:40;;;;;;;9.50;8.60;;;;;;;12.90;94.44;101755.39;105670;1257;69192;-67
2023/09/25 07:05:09;;;;;;;12.80;10.30;;;;;;;13.02;94.60;101753.70;105633;1252;69051;-64
2023/09/25 07:07:38;;;;;;;11.80;9.90;;;;;;;13.15;94.87;101760.02;105652;1251;74607;-63
2023/09/25 07:10:09;;;;;;;10.40;8.90;;;;;;;13.30;94.90;101756.17;105582;1256;83053;-63
2023/09/25 07:12:37;;;;;;;11.00;9.70;;;;;;;13.38;94.57;101753.84;105611;1257;72665;-63
2023/09/25 07:15:07;;;;;;;12.70;9.20;;;;;;;13.47;94.55;101755.87;105654;1256;69170;-63
2023/09/25 07:17:35;;;;;;;10.40;9.10;;;;;;;13.55;94.21;101756.02;105670;1251;69601;-63
2023/09/25 07:20:05;;;;;;;12.30;9.30;;;;;;;13.60;94.24;101763.61;105617;1257;74730;-63
2023/09/25 07:22:33;;;;;;;11.00;9.20;;;;;;;13.67;93.96;101767.45;105718;1255;82909;-64
2023/09/25 07:25:02;;;;;;;12.00;9.80;;;;;;;13.71;93.97;101765.75;105618;1256;72718;-63
2023/09/25 07:27:32;;;;;;;11.00;9.80;;;;;;;13.78;93.92;101765.90;105643;1251;69179;-63
2023/09/25 07:30:05;;;;;;;12.00;9.30;;;;;;;13.83;93.72;101763.46;106015;1256;69197;-63
2023/09/25 07:32:34;;;;;;;10.00;8.90;;;;;;;13.90;93.90;101762.91;105703;1252;74832;-63
2023/09/25 07:35:07;;;;;;;11.40;9.90;;;;;;;14.01;94.17;101764.88;105712;1258;83234;-69
2023/09/25 07:37:36;;;;;;;11.30;9.20;;;;;;;14.11;94.01;101770.23;105630;1251;72798;-64
2023/09/25 07:40:10;;;;;;;12.10;9.10;;;;;;;14.16;93.61;101769.52;105738;1255;69181;-65
2023/09/25 07:42:38;;;;;;;12.90;9.20;;;;;;;14.22;93.67;101765.49;105692;1256;69092;-65
2023/09/25 07:45:11;;;;;;;13.10;9.30;;;;;;;14.29;93.55;101765.80;105697;1251;74598;-63
2023/09/25 07:47:41;;;;;;;10.10;9.10;;;;;;;14.33;93.41;101768.31;105697;1251;83369;-65
2023/09/25 07:50:10;;;;;;;10.30;8.90;;;;;;;14.38;93.48;101767.11;105658;1254;72687;-65
2023/09/25 07:52:39;;;;;;;10.10;8.80;;;;;;;14.47;93.68;101768.05;105613;1251;69180;-64
2023/09/25 07:55:10;;;;;;;11.90;8.70;;;;;;;14.58;93.91;101768.08;105741;1264;69102;-65
2023/09/25 07:57:39;;;;;;;10.60;8.90;;;;;;;14.69;93.79;101767.39;105739;1254;75389;-64
2023/09/25 08:00:23;;;;;;;10.80;8.90;;;;;;;14.79;93.85;101768.82;105776;1252;83672;-65
2023/09/25 08:02:52;;;;;;;11.00;8.80;;;;;;;14.88;93.46;101763.77;105697;1256;73241;-65
2023/09/25 08:05:22;;;;;;;11.40;8.60;;;;;;;14.93;93.41;101764.83;105837;1250;70078;-71
2023/09/25 08:07:52;;;;;;;11.80;9.10;;;;;;;15.05;93.75;101768.30;105731;1257;70682;-70
2023/09/25 08:10:24;;;;;;;10.30;7.90;;;;;;;15.16;93.39;101763.70;105608;1255;72887;-70
2023/09/25 08:12:52;;;;;;;8.70;7.40;;;;;;;15.26;93.27;101768.84;105831;1257;83367;-70
2023/09/25 08:15:23;;;;;;;9.20;7.70;;;;;;;15.37;93.38;101765.09;105818;1252;73423;-71
2023/09/25 08:17:51;;;;;;;7.70;6.90;;;;;;;15.52;93.49;101761.20;105726;1252;69620;-71
2023/09/25 08:20:22;;;;;;;9.00;7.20;;;;;;;15.68;93.44;101763.13;105918;1251;69250;-64
2023/09/25 08:22:51;;;;;;;8.30;7.40;;;;;;;15.86;93.30;101758.75;105341;1257;74978;-64
2023/09/25 08:25:21;;;;;;;9.50;6.80;;;;;;;16.03;92.95;101759.17;105779;1255;82559;-64
2023/09/25 08:27:51;;;;;;;7.70;6.80;;;;;;;16.20;92.68;101757.11;105757;1252;73775;-64
2023/09/25 08:30:20;;;;;;;7.60;6.30;;;;;;;16.38;92.34;101756.26;105772;1256;69070;-65
2023/09/25 08:32:49;;;;;;;6.80;6.00;;;;;;;16.53;91.86;101755.10;105772;1257;69041;-63
2023/09/25 08:35:18;;;;;;;7.90;5.40;;;;;;;16.68;91.68;101755.03;106073;1256;75251;-62
2023/09/25 08:37:47;;;;;;;8.50;5.80;;;;;;;16.86;91.56;101752.19;105789;1251;82388;-63
2023/09/25 08:40:16;;;;;;;8.30;5.80;;;;;;;17.03;91.13;101751.14;105675;1251;73850;-63
2023/09/25 08:42:46;;;;;;;7.70;5.00;;;;;;;17.18;90.30;101753.33;105908;1251;69112;-63
2023/09/25 08:45:15;;;;;;;6.90;4.50;;;;;;;17.33;89.96;101751.61;105801;1251;69081;-63
2023/09/25 08:47:45;;;;;;;6.10;5.20;;;;;;;17.48;89.51;101753.92;105685;1257;73802;-63
2023/09/25 08:50:14;;;;;;;8.20;5.60;;;;;;;17.63;88.99;101746.55;105713;1257;83303;-63
2023/09/25 08:52:43;;;;;;;6.20;5.00;;;;;;;17.77;88.47;101742.91;105775;1255;73687;-63
2023/09/25 08:55:12;;;;;;;6.70;4.60;;;;;;;17.88;87.79;101741.23;105828;1257;69179;-65
2023/09/25 08:57:41;;;;;;;5.20;4.70;;;;;;;17.97;87.47;101745.58;105659;1257;69272;-64
2023/09/25 09:00:14;;;;;;;6.60;4.20;;;;;;;18.09;87.26;101739.34;105526;1260;75042;-64
2023/09/25 09:02:43;;;;;;;4.80;4.30;;;;;;;18.26;87.06;101737.47;105632;1254;83970;-63
2023/09/25 09:05:16;;;;;;;7.00;4.30;;;;;;;18.42;86.80;101738.84;105610;1254;73638;-66
2023/09/25 09:08:03;;;;;;;6.10;4.30;;;;;;;18.62;86.61;101741.02;105565;1257;69285;-65
2023/09/25 09:10:31;;;;;;;5.70;4.00;;;;;;;18.86;86.09;101735.98;105546;1255;69192;-65
2023/09/25 09:13:01;;;;;;;8.20;4.20;;;;;;;19.02;85.33;101734.27;105623;1256;73926;-65
2023/09/25 09:15:31;;;;;;;5.90;4.00;;;;;;;19.17;84.86;101730.14;105639;1251;82469;-65
2023/09/25 09:18:16;;;;;;;4.20;3.80;;;;;;;19.31;84.51;101728.52;105586;1256;72981;-65
2023/09/25 09:20:46;;;;;;;5.50;4.40;;;;;;;19.50;83.62;101724.52;105633;1257;69127;-65
2023/09/25 09:23:15;;;;;;;7.20;4.50;;;;;;;19.60;83.39;101722.02;105528;1255;69198;-65
2023/09/25 09:25:45;;;;;;;4.80;4.20;;;;;;;19.77;82.92;101719.54;105648;1254;75017;-65
2023/09/25 09:28:14;;;;;;;6.10;4.20;;;;;;;19.93;82.85;101712.80;105604;1254;83839;-65
2023/09/25 09:30:43;;;;;;;5.70;3.90;;;;;;;20.15;82.30;101706.63;105594;1256;73536;-65
2023/09/25 09:33:11;;;;;;;5.60;4.60;;;;;;;20.30;81.74;101707.00;105568;1256;69173;-66
2023/09/25 09:35:43;;;;;;;8.40;5.40;;;;;;;20.53;81.36;101706.94;105571;1257;69138;-66
2023/09/25 09:38:12;;;;;;;7.00;4.40;;;;;;;20.64;79.91;101705.02;105548;1256;73503;-65
2023/09/25 09:40:41;;;;;;;5.60;4.60;;;;;;;20.72;79.55;101710.44;105666;1256;83688;-66
2023/09/25 09:43:09;;;;;;;9.10;5.10;;;;;;;20.86;79.09;101709.60;105694;1254;74264;-66
2023/09/25 09:45:38;;;;;;;5.90;5.00;;;;;;;20.96;78.49;101708.47;105615;1257;69084;-66
2023/09/25 09:48:07;;;;;;;5.80;5.10;;;;;;;21.12;78.42;101708.95;105495;1257;69131;-66
2023/09/25 09:50:36;;;;;;;6.70;5.00;;;;;;;21.29;77.84;101702.92;105692;1254;73600;-66
2023/09/25 09:53:07;;;;;;;6.70;4.80;;;;;;;21.44;77.29;101703.30;105423;1254;83462;-66
2023/09/25 09:55:36;;;;;;;7.10;5.70;;;;;;;21.63;76.97;101703.73;105568;1256;73726;-66
2023/09/25 09:58:05;;;;;;;;;;;;;;;21.78;76.24;101703.42;105493;1257;69087;-67
2023/09/25 10:00:33;;;;;;;5.30;4.80;;;;;;;21.94;75.73;101700.48;105580;1255;69083;-66
2023/09/25 10:03:03;;;;;;;5.30;4.60;;;;;;;22.11;75.26;101696.92;105663;1255;74809;-66
2023/09/25 10:05:45;;;;;;;5.80;4.60;;;;;;;22.27;74.85;101690.34;105590;1254;83683;-66
2023/09/25 10:08:15;;;;;;;6.20;5.00;;;;;;;22.40;74.39;101697.69;105469;1254;73883;-66
2023/09/25 10:10:48;;;;;;;5.40;4.70;;;;;;;22.59;73.91;101691.12;105526;1257;69804;-66
2023/09/25 10:13:21;;;;;;;6.20;5.00;;;;;;;22.79;73.63;101694.70;105564;1256;69199;-66
2023/09/25 10:16:00;;;;;;;7.70;4.80;;;;;;;22.81;72.59;101693.01;105598;1254;73794;-67
2023/09/25 10:18:30;;;;;;;5.90;4.60;;;;;;;22.87;72.27;101691.89;105639;1256;83622;-66
2023/09/25 10:21:10;;;;;;;6.00;4.50;;;;;;;23.07;71.68;101690.02;105659;1256;74023;-66
2023/09/25 10:23:40;;;;;;;4.50;4.10;;;;;;;23.18;71.04;101685.83;105603;1254;69182;-66
2023/09/25 10:26:17;;;;;;;4.60;3.80;;;;;;;23.46;71.13;101678.55;105602;1257;69173;-66
2023/09/25 10:28:45;;;;;;;5.10;3.40;;;;;;;23.81;70.61;101669.41;105585;1255;74845;-66
2023/09/25 10:31:21;;;;;;;5.70;3.90;;;;;;;24.02;70.01;101670.71;105399;1254;83313;-66
2023/09/25 10:33:59;;;;;;;4.50;3.40;;;;;;;24.23;69.09;101673.98;105775;1254;71435;-66
2023/09/25 10:36:43;;;;;;;3.80;3.20;;;;;;;24.45;68.71;101671.14;105703;1252;69178;-66
2023/09/25 10:39:13;;;;;;;4.70;3.10;;;;;;;24.60;67.46;101667.52;105615;1254;69079;-62
2023/09/25 10:41:42;;;;;;;4.20;3.70;;;;;;;24.46;66.44;101667.85;105565;1254;74541;-65
2023/09/25 10:44:11;;;;;;;7.60;3.70;;;;;;;24.32;65.90;101671.90;105596;1256;83377;-65
2023/09/25 10:46:40;;;;;;;6.20;3.70;;;;;;;24.33;65.91;101667.93;105617;1252;72710;-64
2023/09/25 10:49:09;;;;;;;3.60;3.30;;;;;;;24.43;65.72;101664.26;105659;1255;69224;-64
2023/09/25 10:51:37;;;;;;;4.10;3.30;;;;;;;24.28;64.92;101667.76;105625;1253;69115;-62
2023/09/25 10:54:06;;;;;;;4.00;3.20;;;;;;;23.91;64.85;101667.77;105593;1256;73315;-62
2023/09/25 10:56:34;;;;;;;4.70;3.60;;;;;;;23.59;64.73;101665.24;105572;1256;83086;-63
2023/09/25 10:59:04;;;;;;;5.10;3.30;;;;;;;23.22;64.04;101669.65;105661;1257;73394;-63
2023/09/25 11:01:32;;;;;;;5.20;3.10;;;;;;;23.10;64.69;101667.85;105532;1257;69544;-63
2023/09/25 11:04:01;;;;;;;4.20;3.00;;;;;;;23.19;65.13;101661.84;105560;1254;69128;-63
2023/09/25 11:06:30;;;;;;;5.80;3.40;;;;;;;23.40;65.14;101663.04;105587;1257;73917;-63
2023/09/25 11:08:59;;;;;;;4.30;3.30;;;;;;;23.43;65.13;101660.70;105568;1253;83330;-63
2023/09/25 11:11:31;;;;;;;5.60;3.60;;;;;;;23.34;64.68;101664.39;105405;1254;73683;-63
2023/09/25 11:13:59;;;;;;;5.00;3.70;;;;;;;23.12;64.32;101663.76;105599;1254;69042;-62
2023/09/25 11:16:28;;;;;;;5.10;3.80;;;;;;;22.91;64.13;101659.17;105582;1257;69125;-62
2023/09/25 11:19:15;;;;;;;5.00;3.90;;;;;;;22.61;64.24;101660.28;105736;1253;74926;-62
2023/09/25 11:21:47;;;;;;;4.40;3.40;;;;;;;22.41;64.64;101656.64;105566;1257;83324;-64
2023/09/25 11:24:17;;;;;;;4.30;3.20;;;;;;;22.35;65.46;101653.51;105624;1252;73431;-64
2023/09/25 11:26:46;;;;;;;4.40;3.30;;;;;;;22.34;65.30;101647.52;105451;1254;69189;-64
2023/09/25 11:29:15;;;;;;;8.30;3.30;;;;;;;22.27;65.27;101647.45;105529;1254;69073;-65